< < Back
Terminal Aerodrome Forecast


Current Version              Previous Versions:   1  2  3  4  5  6  7  8  9  

Terminal Aerodrome Forecast

625
FTUS44 KBMX 131125
TAFBHM
TAF
KBHM 131125Z 1312/1412 36010KT P6SM SKC
     FM131500 36012G18KT P6SM SKC=

Latest METAR

039
SAUS70 KWBC 141700 RRJ
MTRBHM
METAR KBHM 141653Z 15007KT 10SM OVC080 04/M13 A3026 RMK AO2 SLP250
T00391128


USA.gov is the U.S. government's official web portal to all federal, state and local government web resources and services.